sensor_id;sensor_type;location;lat;lon;timestamp;pressure;altitude;pressure_sealevel;temperature;humidity
47761;BME280;33524;55.434;38.520;2022-09-06T00:01:10;100455.22;;;6.26;100.00
47761;BME280;33524;55.434;38.520;2022-09-06T00:03:39;100452.41;;;6.13;100.00
47761;BME280;33524;55.434;38.520;2022-09-06T00:06:10;100448.34;;;6.07;100.00
47761;BME280;33524;55.434;38.520;2022-09-06T00:08:38;100456.09;;;6.09;100.00
47761;BME280;33524;55.434;38.520;2022-09-06T00:11:07;100453.38;;;5.95;100.00
47761;BME280;33524;55.434;38.520;2022-09-06T00:13:35;100446.16;;;6.00;100.00
47761;BME280;33524;55.434;38.520;2022-09-06T00:16:16;100454.66;;;5.86;100.00
47761;BME280;33524;55.434;38.520;2022-09-06T00:18:44;100456.03;;;5.93;100.00
47761;BME280;33524;55.434;38.520;2022-09-06T00:21:21;100456.12;;;5.74;100.00
47761;BME280;33524;55.434;38.520;2022-09-06T00:23:50;100454.66;;;5.86;100.00
47761;BME280;33524;55.434;38.520;2022-09-06T00:26:19;100450.34;;;5.69;100.00
47761;BME280;33524;55.434;38.520;2022-09-06T00:28:47;100454.47;;;5.73;100.00
47761;BME280;33524;55.434;38.520;2022-09-06T00:31:21;100448.25;;;5.76;100.00
47761;BME280;33524;55.434;38.520;2022-09-06T00:33:49;100453.09;;;5.66;100.00
47761;BME280;33524;55.434;38.520;2022-09-06T00:36:19;100447.03;;;5.65;100.00
47761;BME280;33524;55.434;38.520;2022-09-06T00:38:48;100451.88;;;5.73;100.00
47761;BME280;33524;55.434;38.520;2022-09-06T00:41:16;100451.09;;;5.71;100.00
47761;BME280;33524;55.434;38.520;2022-09-06T00:44:02;100453.84;;;5.68;100.00
47761;BME280;33524;55.434;38.520;2022-09-06T00:46:31;100451.09;;;5.71;100.00
47761;BME280;33524;55.434;38.520;2022-09-06T00:49:10;100451.78;;;5.75;100.00
47761;BME280;33524;55.434;38.520;2022-09-06T00:51:41;100452.12;;;5.84;100.00
47761;BME280;33524;55.434;38.520;2022-09-06T00:54:09;100448.62;;;5.85;100.00
47761;BME280;33524;55.434;38.520;2022-09-06T00:56:40;100454.28;;;5.76;100.00
47761;BME280;33524;55.434;38.520;2022-09-06T00:59:10;100455.31;;;5.74;100.00
47761;BME280;33524;55.434;38.520;2022-09-06T01:01:38;100454.16;;;5.79;100.00
47761;BME280;33524;55.434;38.520;2022-09-06T01:04:06;100456.25;;;5.73;100.00
47761;BME280;33524;55.434;38.520;2022-09-06T01:06:47;100457.53;;;5.81;100.00
47761;BME280;33524;55.434;38.520;2022-09-06T01:18:46;100442.12;;;5.93;100.00
47761;BME280;33524;55.434;38.520;2022-09-06T01:29:55;100447.28;;;5.94;100.00
47761;BME280;33524;55.434;38.520;2022-09-06T01:35:37;100450.87;;;6.09;100.00
47761;BME280;33524;55.434;38.520;2022-09-06T01:38:07;100461.19;;;6.12;100.00
47761;BME280;33524;55.434;38.520;2022-09-06T01:40:36;100458.69;;;6.26;100.00
47761;BME280;33524;55.434;38.520;2022-09-06T01:43:05;100455.53;;;6.20;100.00
47761;BME280;33524;55.434;38.520;2022-09-06T01:48:34;100452.00;;;6.21;100.00
47761;BME280;33524;55.434;38.520;2022-09-06T01:51:25;100455.78;;;6.15;100.00
47761;BME280;33524;55.434;38.520;2022-09-06T01:54:20;100453.03;;;6.18;100.00
47761;BME280;33524;55.434;38.520;2022-09-06T01:57:10;100451.56;;;6.13;100.00
47761;BME280;33524;55.434;38.520;2022-09-06T02:00:03;100453.16;;;6.15;100.00
47761;BME280;33524;55.434;38.520;2022-09-06T02:03:04;100457.44;;;6.00;100.00
47761;BME280;33524;55.434;38.520;2022-09-06T02:05:50;100458.53;;;5.96;100.00
47761;BME280;33524;55.434;38.520;2022-09-06T02:08:41;100454.75;;;5.84;100.00
47761;BME280;33524;55.434;38.520;2022-09-06T02:11:13;100458.75;;;5.92;100.00
47761;BME280;33524;55.434;38.520;2022-09-06T02:14:10;100462.25;;;5.91;100.00
47761;BME280;33524;55.434;38.520;2022-09-06T02:16:41;100465.53;;;5.96;100.00
47761;BME280;33524;55.434;38.520;2022-09-06T02:21:51;100469.16;;;6.09;100.00
47761;BME280;33524;55.434;38.520;2022-09-06T02:24:28;100466.22;;;6.15;100.00
47761;BME280;33524;55.434;38.520;2022-09-06T02:26:57;100465.06;;;6.21;100.00
47761;BME280;33524;55.434;38.520;2022-09-06T02:29:25;100471.41;;;6.33;100.00
47761;BME280;33524;55.434;38.520;2022-09-06T02:32:22;100468.47;;;6.39;100.00
47761;BME280;33524;55.434;38.520;2022-09-06T02:34:51;100472.28;;;6.49;99.49
47761;BME280;33524;55.434;38.520;2022-09-06T02:37:20;100457.16;;;6.22;100.00
47761;BME280;33524;55.434;38.520;2022-09-06T02:39:50;100451.19;;;6.20;100.00
47761;BME280;33524;55.434;38.520;2022-09-06T02:42:18;100473.91;;;6.18;100.00
47761;BME280;33524;55.434;38.520;2022-09-06T02:44:46;100476.91;;;6.11;100.00
47761;BME280;33524;55.434;38.520;2022-09-06T02:47:14;100479.34;;;6.14;100.00
47761;BME280;33524;55.434;38.520;2022-09-06T02:49:43;100481.25;;;6.28;100.00
47761;BME280;33524;55.434;38.520;2022-09-06T02:52:10;100481.88;;;6.33;99.69
47761;BME280;33524;55.434;38.520;2022-09-06T02:54:39;100488.19;;;6.11;100.00
47761;BME280;33524;55.434;38.520;2022-09-06T02:57:07;100487.44;;;6.09;100.00
47761;BME280;33524;55.434;38.520;2022-09-06T02:59:34;100485.22;;;6.01;100.00
47761;BME280;33524;55.434;38.520;2022-09-06T03:02:03;100486.84;;;6.04;100.00
47761;BME280;33524;55.434;38.520;2022-09-06T03:04:31;100489.28;;;6.07;100.00
47761;BME280;33524;55.434;38.520;2022-09-06T03:06:59;100483.16;;;6.24;99.68
47761;BME280;33524;55.434;38.520;2022-09-06T03:09:27;100469.94;;;6.11;99.15
47761;BME280;33524;55.434;38.520;2022-09-06T03:11:55;100489.28;;;6.07;99.75
47761;BME280;33524;55.434;38.520;2022-09-06T03:14:23;100479.12;;;6.18;98.78
47761;BME280;33524;55.434;38.520;2022-09-06T03:16:51;100485.91;;;6.05;99.56
47761;BME280;33524;55.434;38.520;2022-09-06T03:19:19;100487.94;;;6.00;99.89
47761;BME280;33524;55.434;38.520;2022-09-06T03:21:48;100489.13;;;5.93;100.00
47761;BME280;33524;55.434;38.520;2022-09-06T03:24:16;100490.38;;;5.85;100.00
47761;BME280;33524;55.434;38.520;2022-09-06T03:26:44;100491.53;;;5.80;100.00
47761;BME280;33524;55.434;38.520;2022-09-06T03:29:12;100499.53;;;5.77;100.00
47761;BME280;33524;55.434;38.520;2022-09-06T03:31:40;100501.66;;;5.86;100.00
47761;BME280;33524;55.434;38.520;2022-09-06T03:34:08;100501.50;;;5.89;100.00
47761;BME280;33524;55.434;38.520;2022-09-06T03:36:37;100502.19;;;5.93;100.00
47761;BME280;33524;55.434;38.520;2022-09-06T03:39:22;100500.50;;;5.92;100.00
47761;BME280;33524;55.434;38.520;2022-09-06T03:41:50;100504.87;;;5.91;100.00
47761;BME280;33524;55.434;38.520;2022-09-06T03:44:18;100504.03;;;5.91;99.98
47761;BME280;33524;55.434;38.520;2022-09-06T03:46:46;100507.28;;;5.96;99.64
47761;BME280;33524;55.434;38.520;2022-09-06T03:49:14;100498.97;;;5.87;100.00
47761;BME280;33524;55.434;38.520;2022-09-06T03:51:42;100505.72;;;5.92;100.00
47761;BME280;33524;55.434;38.520;2022-09-06T03:54:10;100511.66;;;5.95;100.00
47761;BME280;33524;55.434;38.520;2022-09-06T03:56:38;100505.72;;;6.09;100.00
47761;BME280;33524;55.434;38.520;2022-09-06T03:59:06;100509.47;;;6.21;99.89
47761;BME280;33524;55.434;38.520;2022-09-06T04:01:34;100502.66;;;6.01;99.90
47761;BME280;33524;55.434;38.520;2022-09-06T04:04:02;100506.34;;;6.14;99.50
47761;BME280;33524;55.434;38.520;2022-09-06T04:06:30;100507.63;;;6.05;99.60
47761;BME280;33524;55.434;38.520;2022-09-06T04:08:58;100506.72;;;6.06;99.24
47761;BME280;33524;55.434;38.520;2022-09-06T04:11:28;100502.88;;;6.14;99.22
47761;BME280;33524;55.434;38.520;2022-09-06T04:13:56;100502.53;;;6.20;98.81
47761;BME280;33524;55.434;38.520;2022-09-06T04:16:24;100508.44;;;6.23;98.49
47761;BME280;33524;55.434;38.520;2022-09-06T04:18:52;100512.22;;;6.18;98.31
47761;BME280;33524;55.434;38.520;2022-09-06T04:21:20;100498.13;;;6.38;97.33
47761;BME280;33524;55.434;38.520;2022-09-06T04:23:48;100513.09;;;6.34;97.28
47761;BME280;33524;55.434;38.520;2022-09-06T04:26:17;100515.56;;;6.37;96.96
47761;BME280;33524;55.434;38.520;2022-09-06T04:28:47;100512.03;;;6.38;96.77
47761;BME280;33524;55.434;38.520;2022-09-06T04:31:15;100510.41;;;6.36;96.54
47761;BME280;33524;55.434;38.520;2022-09-06T04:33:43;100516.34;;;6.39;96.57
47761;BME280;33524;55.434;38.520;2022-09-06T04:36:11;100518.72;;;6.60;95.56
47761;BME280;33524;55.434;38.520;2022-09-06T04:38:42;100523.50;;;6.67;95.43
47761;BME280;33524;55.434;38.520;2022-09-06T04:41:12;100514.00;;;6.66;94.42
47761;BME280;33524;55.434;38.520;2022-09-06T04:43:42;100519.03;;;6.70;94.43
47761;BME280;33524;55.434;38.520;2022-09-06T04:48:49;100523.38;;;6.71;93.95
47761;BME280;33524;55.434;38.520;2022-09-06T04:51:18;100516.88;;;6.78;93.59
47761;BME280;33524;55.434;38.520;2022-09-06T04:53:46;100520.16;;;6.81;93.50
47761;BME280;33524;55.434;38.520;2022-09-06T04:56:17;100517.53;;;6.81;93.59
47761;BME280;33524;55.434;38.520;2022-09-06T04:58:47;100510.81;;;6.93;93.47
47761;BME280;33524;55.434;38.520;2022-09-06T05:01:16;100514.34;;;6.92;92.71
47761;BME280;33524;55.434;38.520;2022-09-06T05:03:44;100510.12;;;6.90;92.29
47761;BME280;33524;55.434;38.520;2022-09-06T05:06:18;100505.16;;;6.85;92.43
47761;BME280;33524;55.434;38.520;2022-09-06T05:08:50;100502.34;;;7.20;91.01
47761;BME280;33524;55.434;38.520;2022-09-06T05:11:18;100511.22;;;7.01;91.14
47761;BME280;33524;55.434;38.520;2022-09-06T05:13:46;100496.44;;;7.00;91.29
47761;BME280;33524;55.434;38.520;2022-09-06T05:16:14;100505.03;;;7.18;90.84
47761;BME280;33524;55.434;38.520;2022-09-06T05:18:42;100504.44;;;7.59;88.61
47761;BME280;33524;55.434;38.520;2022-09-06T05:21:10;100500.59;;;7.51;87.65
47761;BME280;33524;55.434;38.520;2022-09-06T05:23:38;100501.13;;;7.25;88.79
47761;BME280;33524;55.434;38.520;2022-09-06T05:26:07;100504.19;;;7.48;88.71
47761;BME280;33524;55.434;38.520;2022-09-06T05:28:35;100499.62;;;7.82;86.95
47761;BME280;33524;55.434;38.520;2022-09-06T05:31:23;100509.56;;;7.46;87.76
47761;BME280;33524;55.434;38.520;2022-09-06T05:33:53;100494.87;;;7.88;86.81
47761;BME280;33524;55.434;38.520;2022-09-06T05:36:21;100487.56;;;7.94;85.40
47761;BME280;33524;55.434;38.520;2022-09-06T05:38:50;100499.25;;;8.74;83.35
47761;BME280;33524;55.434;38.520;2022-09-06T05:41:19;100496.94;;;8.12;84.44
47761;BME280;33524;55.434;38.520;2022-09-06T05:43:47;100503.47;;;7.91;83.40
47761;BME280;33524;55.434;38.520;2022-09-06T05:46:15;100504.56;;;7.72;84.80
47761;BME280;33524;55.434;38.520;2022-09-06T05:48:53;100496.75;;;8.01;83.95
47761;BME280;33524;55.434;38.520;2022-09-06T05:51:22;100493.75;;;7.93;84.25
47761;BME280;33524;55.434;38.520;2022-09-06T05:53:51;100499.38;;;8.15;84.55
47761;BME280;33524;55.434;38.520;2022-09-06T05:56:19;100502.34;;;7.95;83.78
47761;BME280;33524;55.434;38.520;2022-09-06T05:58:48;100501.06;;;8.16;82.90
47761;BME280;33524;55.434;38.520;2022-09-06T06:01:28;100500.88;;;8.62;83.64
47761;BME280;33524;55.434;38.520;2022-09-06T06:03:57;100498.06;;;8.22;82.42
47761;BME280;33524;55.434;38.520;2022-09-06T06:06:33;100500.31;;;8.28;82.27
47761;BME280;33524;55.434;38.520;2022-09-06T06:09:01;100498.47;;;8.45;81.21
47761;BME280;33524;55.434;38.520;2022-09-06T06:11:29;100505.00;;;8.09;82.61
47761;BME280;33524;55.434;38.520;2022-09-06T06:13:58;100502.00;;;8.15;82.98
47761;BME280;33524;55.434;38.520;2022-09-06T06:16:26;100508.50;;;7.94;83.09
47761;BME280;33524;55.434;38.520;2022-09-06T06:18:55;100508.91;;;7.87;83.37
47761;BME280;33524;55.434;38.520;2022-09-06T06:21:26;100505.91;;;8.08;82.79
47761;BME280;33524;55.434;38.520;2022-09-06T06:24:02;100506.66;;;8.24;82.48
47761;BME280;33524;55.434;38.520;2022-09-06T06:26:33;100508.91;;;8.16;83.09
47761;BME280;33524;55.434;38.520;2022-09-06T06:29:02;100509.94;;;8.71;82.03
47761;BME280;33524;55.434;38.520;2022-09-06T06:31:32;100506.69;;;8.53;81.47
47761;BME280;33524;55.434;38.520;2022-09-06T06:34:00;100507.44;;;8.55;81.71
47761;BME280;33524;55.434;38.520;2022-09-06T06:36:33;100511.00;;;9.50;80.20
47761;BME280;33524;55.434;38.520;2022-09-06T06:39:04;100505.25;;;9.58;78.37
47761;BME280;33524;55.434;38.520;2022-09-06T06:41:32;100509.25;;;9.36;79.06
47761;BME280;33524;55.434;38.520;2022-09-06T06:44:02;100502.72;;;9.56;78.53
47761;BME280;33524;55.434;38.520;2022-09-06T06:46:35;100501.44;;;9.22;78.37
47761;BME280;33524;55.434;38.520;2022-09-06T06:49:04;100503.62;;;9.15;78.27
47761;BME280;33524;55.434;38.520;2022-09-06T06:51:34;100505.78;;;9.23;77.87
47761;BME280;33524;55.434;38.520;2022-09-06T06:54:06;100503.41;;;9.05;78.30
47761;BME280;33524;55.434;38.520;2022-09-06T06:56:35;100498.37;;;8.88;78.24
47761;BME280;33524;55.434;38.520;2022-09-06T06:59:05;100499.38;;;8.73;78.18
47761;BME280;33524;55.434;38.520;2022-09-06T07:01:35;100507.31;;;8.71;77.69
47761;BME280;33524;55.434;38.520;2022-09-06T07:04:04;100497.16;;;8.52;77.82
47761;BME280;33524;55.434;38.520;2022-09-06T07:06:46;100500.03;;;9.03;76.55
47761;BME280;33524;55.434;38.520;2022-09-06T07:09:34;100500.03;;;9.03;76.41
47761;BME280;33524;55.434;38.520;2022-09-06T07:12:24;100495.06;;;10.04;76.46
47761;BME280;33524;55.434;38.520;2022-09-06T07:14:51;100492.53;;;11.15;69.88
47761;BME280;33524;55.434;38.520;2022-09-06T07:17:20;100491.69;;;10.54;70.18
47761;BME280;33524;55.434;38.520;2022-09-06T07:19:48;100489.72;;;10.06;70.57
47761;BME280;33524;55.434;38.520;2022-09-06T07:22:36;100499.16;;;9.70;71.39
47761;BME280;33524;55.434;38.520;2022-09-06T07:25:06;100490.97;;;9.62;71.83
47761;BME280;33524;55.434;38.520;2022-09-06T07:27:36;100489.72;;;9.93;70.56
47761;BME280;33524;55.434;38.520;2022-09-06T07:30:19;100486.97;;;10.20;72.79
47761;BME280;33524;55.434;38.520;2022-09-06T07:32:47;100487.28;;;9.90;70.40
47761;BME280;33524;55.434;38.520;2022-09-06T07:35:15;100484.81;;;11.25;68.01
47761;BME280;33524;55.434;38.520;2022-09-06T07:37:54;100482.84;;;11.51;68.69
47761;BME280;33524;55.434;38.520;2022-09-06T07:40:27;100481.22;;;10.78;66.22
47761;BME280;33524;55.434;38.520;2022-09-06T07:42:59;100477.47;;;11.52;63.75
47761;BME280;33524;55.434;38.520;2022-09-06T07:45:30;100479.78;;;10.98;65.54
47761;BME280;33524;55.434;38.520;2022-09-06T07:47:58;100474.16;;;10.28;66.13
47761;BME280;33524;55.434;38.520;2022-09-06T07:50:27;100481.00;;;10.18;70.71
47761;BME280;33524;55.434;38.520;2022-09-06T07:53:15;100475.75;;;11.05;66.79
47761;BME280;33524;55.434;38.520;2022-09-06T07:55:55;100475.50;;;10.47;66.54
47761;BME280;33524;55.434;38.520;2022-09-06T07:58:23;100479.31;;;11.28;68.15
47761;BME280;33524;55.434;38.520;2022-09-06T08:00:51;100476.69;;;9.92;66.42
47761;BME280;33524;55.434;38.520;2022-09-06T08:03:20;100477.19;;;9.71;68.17
47761;BME280;33524;55.434;38.520;2022-09-06T08:05:49;100479.44;;;10.03;67.25
47761;BME280;33524;55.434;38.520;2022-09-06T08:08:38;100477.94;;;9.86;67.37
47761;BME280;33524;55.434;38.520;2022-09-06T08:11:28;100475.69;;;10.94;67.11
47761;BME280;33524;55.434;38.520;2022-09-06T08:13:58;100466.53;;;11.81;65.23
47761;BME280;33524;55.434;38.520;2022-09-06T08:16:28;100454.88;;;13.18;66.92
47761;BME280;33524;55.434;38.520;2022-09-06T08:18:58;100456.78;;;11.24;60.34
47761;BME280;33524;55.434;38.520;2022-09-06T08:21:29;100465.50;;;11.48;61.65
47761;BME280;33524;55.434;38.520;2022-09-06T08:24:01;100456.44;;;11.28;61.72
47761;BME280;33524;55.434;38.520;2022-09-06T08:26:31;100456.34;;;10.58;65.22
47761;BME280;33524;55.434;38.520;2022-09-06T08:29:02;100446.28;;;10.76;64.20
47761;BME280;33524;55.434;38.520;2022-09-06T08:31:33;100455.72;;;11.26;60.95
47761;BME280;33524;55.434;38.520;2022-09-06T08:34:02;100435.62;;;11.72;66.86
47761;BME280;33524;55.434;38.520;2022-09-06T08:36:31;100444.16;;;11.40;67.91
47761;BME280;33524;55.434;38.520;2022-09-06T08:39:01;100445.81;;;11.30;60.59
47761;BME280;33524;55.434;38.520;2022-09-06T08:44:50;100451.25;;;10.67;62.53
47761;BME280;33524;55.434;38.520;2022-09-06T08:47:20;100449.16;;;10.10;64.20
47761;BME280;33524;55.434;38.520;2022-09-06T08:50:00;100448.34;;;9.97;65.25
47761;BME280;33524;55.434;38.520;2022-09-06T08:55:43;100440.19;;;10.13;64.05
47761;BME280;33524;55.434;38.520;2022-09-06T09:01:06;100439.72;;;10.57;62.74
47761;BME280;33524;55.434;38.520;2022-09-06T09:03:38;100431.78;;;10.94;63.13
47761;BME280;33524;55.434;38.520;2022-09-06T09:06:09;100428.94;;;10.97;60.90
47761;BME280;33524;55.434;38.520;2022-09-06T09:09:05;100430.47;;;11.24;59.59
47761;BME280;33524;55.434;38.520;2022-09-06T09:11:34;100426.75;;;11.62;60.29
47761;BME280;33524;55.434;38.520;2022-09-06T09:14:28;100422.59;;;12.38;60.80
47761;BME280;33524;55.434;38.520;2022-09-06T09:17:11;100430.44;;;11.59;59.23
47761;BME280;33524;55.434;38.520;2022-09-06T09:19:43;100433.75;;;11.97;62.77
47761;BME280;33524;55.434;38.520;2022-09-06T09:22:13;100425.59;;;11.88;65.63
47761;BME280;33524;55.434;38.520;2022-09-06T09:24:45;100418.91;;;11.96;57.68
47761;BME280;33524;55.434;38.520;2022-09-06T09:27:17;100424.63;;;12.23;57.63
47761;BME280;33524;55.434;38.520;2022-09-06T09:32:42;100423.22;;;11.39;62.93
47761;BME280;33524;55.434;38.520;2022-09-06T09:35:16;100423.66;;;12.36;60.02
47761;BME280;33524;55.434;38.520;2022-09-06T09:37:44;100419.84;;;11.95;57.93
47761;BME280;33524;55.434;38.520;2022-09-06T09:40:26;100414.25;;;13.72;60.33
47761;BME280;33524;55.434;38.520;2022-09-06T09:43:06;100417.41;;;14.27;57.21
47761;BME280;33524;55.434;38.520;2022-09-06T09:45:35;100407.06;;;13.53;53.35
47761;BME280;33524;55.434;38.520;2022-09-06T09:48:26;100405.84;;;14.98;58.79
47761;BME280;33524;55.434;38.520;2022-09-06T09:50:54;100417.56;;;13.64;54.57
47761;BME280;33524;55.434;38.520;2022-09-06T09:53:23;100418.22;;;14.18;61.05
47761;BME280;33524;55.434;38.520;2022-09-06T09:55:56;100417.13;;;13.27;54.71
47761;BME280;33524;55.434;38.520;2022-09-06T09:58:33;100408.94;;;12.77;64.87
47761;BME280;33524;55.434;38.520;2022-09-06T10:01:10;100412.06;;;15.46;55.09
47761;BME280;33524;55.434;38.520;2022-09-06T10:03:39;100409.75;;;14.24;53.36
47761;BME280;33524;55.434;38.520;2022-09-06T10:06:28;100424.88;;;12.43;57.04
47761;BME280;33524;55.434;38.520;2022-09-06T10:09:32;100418.53;;;12.00;58.69
47761;BME280;33524;55.434;38.520;2022-09-06T10:12:01;100420.47;;;12.09;60.20
47761;BME280;33524;55.434;38.520;2022-09-06T10:14:45;100438.28;;;11.01;68.90
47761;BME280;33524;55.434;38.520;2022-09-06T10:17:26;100429.28;;;11.28;66.02
47761;BME280;33524;55.434;38.520;2022-09-06T10:20:00;100428.72;;;10.26;67.13
47761;BME280;33524;55.434;38.520;2022-09-06T10:22:32;100426.50;;;11.18;64.28
47761;BME280;33524;55.434;38.520;2022-09-06T10:28:06;100415.00;;;11.55;62.78
47761;BME280;33524;55.434;38.520;2022-09-06T10:31:24;100411.13;;;12.28;65.27
47761;BME280;33524;55.434;38.520;2022-09-06T10:34:24;100409.87;;;11.76;60.39
47761;BME280;33524;55.434;38.520;2022-09-06T10:37:19;100404.56;;;12.55;56.80
47761;BME280;33524;55.434;38.520;2022-09-06T10:39:57;100405.72;;;11.96;57.65
47761;BME280;33524;55.434;38.520;2022-09-06T10:42:48;100401.16;;;12.09;56.91
47761;BME280;33524;55.434;38.520;2022-09-06T10:45:28;100399.72;;;11.24;58.82
47761;BME280;33524;55.434;38.520;2022-09-06T10:48:08;100399.22;;;12.34;54.89
47761;BME280;33524;55.434;38.520;2022-09-06T10:56:26;100396.13;;;12.06;54.38
47761;BME280;33524;55.434;38.520;2022-09-06T11:04:39;100382.22;;;12.26;53.26
47761;BME280;33524;55.434;38.520;2022-09-06T11:07:36;100389.41;;;12.24;55.08
47761;BME280;33524;55.434;38.520;2022-09-06T11:12:41;100395.12;;;10.80;61.91
47761;BME280;33524;55.434;38.520;2022-09-06T11:15:13;100393.16;;;11.30;63.48
47761;BME280;33524;55.434;38.520;2022-09-06T11:18:08;100389.44;;;11.21;67.95
47761;BME280;33524;55.434;38.520;2022-09-06T11:26:28;100383.19;;;13.22;61.58
47761;BME280;33524;55.434;38.520;2022-09-06T11:29:04;100380.19;;;11.96;60.82
47761;BME280;33524;55.434;38.520;2022-09-06T11:31:56;100377.72;;;13.35;59.33
47761;BME280;33524;55.434;38.520;2022-09-06T11:34:55;100378.50;;;12.06;59.78
47761;BME280;33524;55.434;38.520;2022-09-06T11:37:31;100380.63;;;12.35;62.71
47761;BME280;33524;55.434;38.520;2022-09-06T11:40:13;100371.19;;;12.32;60.53
47761;BME280;33524;55.434;38.520;2022-09-06T11:45:47;100370.91;;;12.36;58.79
47761;BME280;33524;55.434;38.520;2022-09-06T11:53:23;100370.97;;;12.24;61.89
47761;BME280;33524;55.434;38.520;2022-09-06T11:56:16;100375.53;;;10.84;62.85
47761;BME280;33524;55.434;38.520;2022-09-06T11:59:55;100382.16;;;10.65;64.90
47761;BME280;33524;55.434;38.520;2022-09-06T12:02:28;100381.25;;;10.78;70.62
47761;BME280;33524;55.434;38.520;2022-09-06T12:07:30;100378.53;;;11.15;68.80
47761;BME280;33524;55.434;38.520;2022-09-06T12:12:58;100374.31;;;10.77;68.81
47761;BME280;33524;55.434;38.520;2022-09-06T12:15:39;100374.88;;;11.51;67.93
47761;BME280;33524;55.434;38.520;2022-09-06T12:21:43;100349.25;;;12.32;63.56
47761;BME280;33524;55.434;38.520;2022-09-06T12:27:18;100354.66;;;12.30;63.41
47761;BME280;33524;55.434;38.520;2022-09-06T12:30:00;100361.63;;;11.98;62.22
47761;BME280;33524;55.434;38.520;2022-09-06T12:32:35;100368.78;;;11.50;63.07
47761;BME280;33524;55.434;38.520;2022-09-06T12:35:04;100364.72;;;11.69;63.89
47761;BME280;33524;55.434;38.520;2022-09-06T12:38:01;100371.38;;;11.28;62.72
47761;BME280;33524;55.434;38.520;2022-09-06T12:40:36;100363.69;;;12.05;63.76
47761;BME280;33524;55.434;38.520;2022-09-06T12:43:08;100356.53;;;13.46;57.12
47761;BME280;33524;55.434;38.520;2022-09-06T12:45:44;100357.81;;;13.83;55.77
47761;BME280;33524;55.434;38.520;2022-09-06T12:48:34;100372.13;;;14.11;55.48
47761;BME280;33524;55.434;38.520;2022-09-06T12:51:18;100356.59;;;14.37;54.87
47761;BME280;33524;55.434;38.520;2022-09-06T12:53:57;100367.94;;;13.47;56.81
47761;BME280;33524;55.434;38.520;2022-09-06T12:56:27;100364.03;;;11.89;62.04
47761;BME280;33524;55.434;38.520;2022-09-06T12:59:19;100374.41;;;12.36;61.85
47761;BME280;33524;55.434;38.520;2022-09-06T13:04:45;100375.19;;;12.91;59.61
47761;BME280;33524;55.434;38.520;2022-09-06T13:07:17;100370.88;;;12.90;60.91
47761;BME280;33524;55.434;38.520;2022-09-06T13:09:48;100366.41;;;11.81;63.55
47761;BME280;33524;55.434;38.520;2022-09-06T13:12:32;100367.13;;;11.72;64.14
47761;BME280;33524;55.434;38.520;2022-09-06T13:15:10;100361.00;;;11.60;65.31
47761;BME280;33524;55.434;38.520;2022-09-06T13:17:40;100368.00;;;11.26;66.37
47761;BME280;33524;55.434;38.520;2022-09-06T13:20:23;100366.31;;;11.14;68.03
47761;BME280;33524;55.434;38.520;2022-09-06T13:22:52;100373.53;;;11.34;67.87
47761;BME280;33524;55.434;38.520;2022-09-06T13:25:22;100374.66;;;10.48;71.64
47761;BME280;33524;55.434;38.520;2022-09-06T13:27:53;100371.09;;;11.08;70.39
47761;BME280;33524;55.434;38.520;2022-09-06T13:30:40;100376.16;;;11.23;68.23
47761;BME280;33524;55.434;38.520;2022-09-06T13:33:23;100366.09;;;11.17;67.64
47761;BME280;33524;55.434;38.520;2022-09-06T13:43:57;100363.50;;;10.93;68.30
47761;BME280;33524;55.434;38.520;2022-09-06T13:46:26;100360.94;;;10.32;71.02
47761;BME280;33524;55.434;38.520;2022-09-06T13:48:55;100354.63;;;10.21;71.89
47761;BME280;33524;55.434;38.520;2022-09-06T13:51:23;100353.16;;;10.54;71.39
47761;BME280;33524;55.434;38.520;2022-09-06T13:54:09;100360.56;;;10.49;71.71
47761;BME280;33524;55.434;38.520;2022-09-06T13:56:38;100360.44;;;10.50;71.83
47761;BME280;33524;55.434;38.520;2022-09-06T13:59:08;100355.97;;;10.27;72.19
47761;BME280;33524;55.434;38.520;2022-09-06T14:01:40;100362.84;;;10.29;72.51
47761;BME280;33524;55.434;38.520;2022-09-06T14:04:13;100366.06;;;10.33;72.16
47761;BME280;33524;55.434;38.520;2022-09-06T14:06:41;100370.28;;;10.23;72.39
47761;BME280;33524;55.434;38.520;2022-09-06T14:09:10;100369.03;;;10.77;71.88
47761;BME280;33524;55.434;38.520;2022-09-06T14:11:38;100363.22;;;10.60;70.28
47761;BME280;33524;55.434;38.520;2022-09-06T14:14:10;100358.81;;;10.37;70.93
47761;BME280;33524;55.434;38.520;2022-09-06T14:16:38;100361.00;;;10.67;70.42
47761;BME280;33524;55.434;38.520;2022-09-06T14:19:06;100363.47;;;10.57;69.73
47761;BME280;33524;55.434;38.520;2022-09-06T14:21:35;100359.97;;;10.81;69.95
47761;BME280;33524;55.434;38.520;2022-09-06T14:24:04;100360.78;;;10.46;70.41
47761;BME280;33524;55.434;38.520;2022-09-06T14:26:32;100351.22;;;11.04;69.35
47761;BME280;33524;55.434;38.520;2022-09-06T14:29:04;100360.56;;;10.49;70.37
47761;BME280;33524;55.434;38.520;2022-09-06T14:31:35;100355.91;;;10.53;71.42
47761;BME280;33524;55.434;38.520;2022-09-06T14:34:06;100360.22;;;10.78;69.68
47761;BME280;33524;55.434;38.520;2022-09-06T14:36:34;100355.03;;;11.00;68.74
47761;BME280;33524;55.434;38.520;2022-09-06T14:39:02;100350.75;;;11.10;69.13
47761;BME280;33524;55.434;38.520;2022-09-06T14:41:30;100361.03;;;10.78;68.64
47761;BME280;33524;55.434;38.520;2022-09-06T14:43:59;100354.19;;;11.00;67.90
47761;BME280;33524;55.434;38.520;2022-09-06T14:46:27;100364.69;;;10.64;69.31
47761;BME280;33524;55.434;38.520;2022-09-06T14:48:59;100368.47;;;10.60;69.38
47761;BME280;33524;55.434;38.520;2022-09-06T14:51:28;100368.53;;;10.47;70.08